BIRKEGPC

Guest
Details From BIRK - Reykjavik
To EGPC - Wick
Flight Number -
Tags Generated
Created
Modified
Stats Distance 638 nm / 1,182 km
Max Altitude 0 ft / 0 m
Waypoints 3
Social Downloads 0
Likes 0
Share VATSIM

Download

Looking for another format? Having issues loading an existing format? Contact us
Advertisement - Login to hide

Notes

Generated

Route

BIRK WIK EGPC

ID Type Via Altitude Latitude Longitude Leg Dist Tot Dist Heading (true) Name
O BIRK APT - 0 ft / 0 m 64.12743˚ -21.94699˚ - 0 nm - -
WIK VOR - 0 ft / 0 m 58.45889˚ -3.10028˚ 637 nm 637 nm 114° / 130° WICK VOR-DME
O EGPC APT - 0 ft / 0 m 58.45582˚ -3.10161˚ 0 nm 637 nm 193° / 193° -

Altitude Profile

Advertisement - Login to hide

Weather


0- 5 10 15 20 25 30 35+ Temperature / ° C

Clouds and Precipitation
Forecast for 2017-12-12 06:00 UTC. Updated an hour ago

Ground ~20,000 ft ~40,000 ft Winds

BIRK

Details ICAO BIRK (RKV)
Name Reykjavik
Region Iceland
Timezone Atlantic/Reykjavik (UTC+0.0)
Stats Elevation 47 ft / 14 m (AMSL)
Location 64.129644° -21.940609°
Runways 3
Magnetic Variation 13.777° W

METAR

BIRK 120600Z 17007KT 6000 RADZ SCT016 BKN027 OVC032 02/M00 Q0980

Decode

TAF

TAF BIRK 120154Z 1203/1303 10015G25KT 9999 RA BKN015 OVC025 TX04/1205Z TNM00/1224Z TEMPO 1203/1207 13028G38KT 7000 RA DZ BKN010 OVC012 BECMG 1206/1208 16015KT SHRA FEW015 BKN030 BECMG 1221/1223 09010KT

Decode

Departure Runways

ID Width Length Bearing (true) Bearing (mag) Surface Threshold Offset Overrun Length
01 148 ft / 45 m 5,129 ft / 1,563 m 355.27° 9.05° Asphalt 262 ft / 80 m 0 ft / 0 m
06 98 ft / 30 m 2,800 ft / 853 m 46.35° 60.13° Asphalt 299 ft / 91 m 0 ft / 0 m
13 148 ft / 45 m 4,023 ft / 1,226 m 116.28° 130.06° Asphalt 0 ft / 0 m 0 ft / 0 m
19 148 ft / 45 m 5,129 ft / 1,563 m 175.27° 189.05° Asphalt 0 ft / 0 m 0 ft / 0 m
24 98 ft / 30 m 2,800 ft / 853 m 226.37° 240.15° Asphalt 0 ft / 0 m 0 ft / 0 m
31 148 ft / 45 m 4,023 ft / 1,226 m 296.30° 310.08° Asphalt 213 ft / 65 m 0 ft / 0 m

EGPC

Details ICAO EGPC (WIC)
Name Wick
Region United Kingdom
Timezone Europe/London (UTC+0.0)
Stats Elevation 126 ft / 38 m (AMSL)
Location 58.457866° -3.092981°
Runways 2
Magnetic Variation 2.629° W

METAR

EGPC 120620Z 30007KT 9999 VCSH SCT021 02/01 Q0998

Decode

TAF

Not found

Destination Runways

ID Width Length Bearing (true) Bearing (mag) Surface Threshold Offset Overrun Length
08 148 ft / 45 m 3,390 ft / 1,033 m 75.45° 78.08° Asphalt 0 ft / 0 m 0 ft / 0 m
13 148 ft / 45 m 5,978 ft / 1,822 m 127.02° 129.65° Asphalt 814 ft / 248 m 0 ft / 0 m
26 148 ft / 45 m 3,390 ft / 1,033 m 255.46° 258.09° Asphalt 0 ft / 0 m 0 ft / 0 m
31 148 ft / 45 m 5,978 ft / 1,822 m 307.04° 309.67° Asphalt 1,010 ft / 308 m 0 ft / 0 m

Popular Alternatives